createdAt,value
2022-09-06T00:04:36.666Z,7.66
2022-09-06T00:09:43.472Z,7.58
2022-09-06T00:14:50.581Z,7.50
2022-09-06T00:20:02.408Z,7.41
2022-09-06T00:25:11.219Z,7.33
2022-09-06T00:30:18.582Z,7.25
2022-09-06T00:35:27.219Z,7.17
2022-09-06T00:40:36.839Z,7.15
2022-09-06T00:45:44.237Z,7.13
2022-09-06T00:50:54.078Z,7.09
2022-09-06T00:56:02.188Z,7.04
2022-09-06T01:01:09.639Z,6.99
2022-09-06T01:06:27.652Z,6.93
2022-09-06T01:11:48.677Z,6.88
2022-09-06T01:17:05.302Z,6.83
2022-09-06T01:22:30.972Z,6.78
2022-09-06T01:28:14.595Z,6.76
2022-09-06T01:33:31.417Z,6.85
2022-09-06T01:38:39.118Z,6.95
2022-09-06T01:43:50.767Z,6.75
2022-09-06T01:49:14.248Z,6.63
2022-09-06T01:54:34.971Z,6.55
2022-09-06T01:59:59.565Z,6.47
2022-09-06T02:05:13.407Z,6.40
2022-09-06T02:10:24.606Z,6.34
2022-09-06T02:15:35.716Z,6.33
2022-09-06T02:20:47.413Z,6.34
2022-09-06T02:25:57.734Z,6.38
2022-09-06T02:31:07.696Z,6.38
2022-09-06T02:36:16.216Z,6.37
2022-09-06T02:41:24.713Z,6.37
2022-09-06T02:46:32.107Z,6.35
2022-09-06T02:51:41.250Z,6.33
2022-09-06T02:56:52.111Z,6.30
2022-09-06T03:02:00.402Z,6.27
2022-09-06T03:07:08.508Z,6.24
2022-09-06T03:12:16.045Z,6.20
2022-09-06T03:17:23.151Z,6.16
2022-09-06T03:22:30.372Z,6.11
2022-09-06T03:27:38.200Z,6.08
2022-09-06T03:32:45.565Z,6.04
2022-09-06T03:37:52.953Z,6.01
2022-09-06T03:43:00.395Z,6.00
2022-09-06T03:48:08.113Z,5.94
2022-09-06T03:53:16.122Z,5.89
2022-09-06T03:58:25.747Z,5.85
2022-09-06T04:03:33.389Z,5.81
2022-09-06T04:08:41.573Z,5.77
2022-09-06T04:13:49.109Z,5.74
2022-09-06T04:18:56.343Z,5.70
2022-09-06T04:24:03.714Z,5.67
2022-09-06T04:29:10.861Z,5.65
2022-09-06T04:34:18.087Z,5.63
2022-09-06T04:39:25.281Z,5.63
2022-09-06T04:44:32.658Z,5.65
2022-09-06T04:49:40.373Z,5.70
2022-09-06T04:54:47.661Z,5.77
2022-09-06T04:59:55.125Z,5.88
2022-09-06T05:05:02.512Z,5.99
2022-09-06T05:10:11.066Z,6.12
2022-09-06T05:15:19.020Z,6.26
2022-09-06T05:20:26.249Z,6.42
2022-09-06T05:25:33.405Z,6.58
2022-09-06T05:30:41.862Z,6.75
2022-09-06T05:35:49.814Z,6.93
2022-09-06T05:40:57.055Z,7.11
2022-09-06T05:46:04.715Z,7.30
2022-09-06T05:51:14.074Z,7.51
2022-09-06T05:56:22.727Z,7.74
2022-09-06T06:01:31.047Z,7.97
2022-09-06T06:06:38.294Z,8.22
2022-09-06T06:11:45.900Z,8.48
2022-09-06T06:16:53.936Z,8.72
2022-09-06T06:22:01.993Z,9.00
2022-09-06T06:27:09.713Z,9.27
2022-09-06T06:32:16.925Z,9.56
2022-09-06T06:37:24.474Z,9.81
2022-09-06T06:42:31.755Z,9.94
2022-09-06T06:47:39.206Z,10.07
2022-09-06T06:52:46.297Z,10.25
2022-09-06T06:57:54.115Z,10.45
2022-09-06T07:03:01.296Z,10.66
2022-09-06T07:08:09.239Z,10.87
2022-09-06T07:13:16.654Z,11.08
2022-09-06T07:18:24.130Z,11.30
2022-09-06T07:29:03.214Z,11.75
2022-09-06T07:34:10.527Z,11.95
2022-09-06T07:39:17.764Z,12.14
2022-09-06T07:44:25.089Z,12.33
2022-09-06T07:49:34.762Z,12.54
2022-09-06T07:54:42.240Z,12.74
2022-09-06T07:59:49.395Z,12.95
2022-09-06T08:04:57.207Z,13.13
2022-09-06T08:10:04.540Z,13.31
2022-09-06T08:15:13.385Z,13.48
2022-09-06T08:20:21.220Z,13.66
2022-09-06T08:25:28.301Z,13.86
2022-09-06T08:30:36.567Z,14.03
2022-09-06T08:35:44.069Z,14.18
2022-09-06T08:40:52.072Z,14.32
2022-09-06T08:46:00.210Z,14.45
2022-09-06T08:51:29.544Z,14.56
2022-09-06T08:56:46.490Z,14.68
2022-09-06T09:02:01.631Z,14.79
2022-09-06T09:07:37.762Z,14.89
2022-09-06T09:12:49.758Z,15.00
2022-09-06T09:17:55.577Z,15.11
2022-09-06T09:23:03.446Z,15.20
2022-09-06T09:28:16.998Z,15.27
2022-09-06T09:33:34.566Z,15.36
2022-09-06T09:38:44.713Z,15.43
2022-09-06T09:44:04.417Z,15.49
2022-09-06T09:49:13.803Z,15.57
2022-09-06T09:54:34.706Z,15.64
2022-09-06T09:59:47.037Z,15.72
2022-09-06T10:05:03.330Z,15.81
2022-09-06T10:10:15.683Z,15.89
2022-09-06T10:15:37.614Z,15.97
2022-09-06T10:20:51.385Z,16.07
2022-09-06T10:26:07.491Z,16.16
2022-09-06T10:31:38.246Z,16.23
2022-09-06T10:36:56.099Z,16.30
2022-09-06T10:42:13.931Z,16.36
2022-09-06T10:47:22.404Z,16.42
2022-09-06T10:52:35.164Z,16.48
2022-09-06T11:08:59.589Z,16.64
2022-09-06T11:14:10.917Z,16.69
2022-09-06T11:19:23.018Z,16.75
2022-09-06T11:24:42.776Z,16.80
2022-09-06T11:29:57.169Z,16.85
2022-09-06T11:35:07.652Z,16.89
2022-09-06T11:45:52.748Z,16.98
2022-09-06T11:51:11.244Z,17.03
2022-09-06T11:56:30.635Z,17.07
2022-09-06T12:01:40.656Z,17.12
2022-09-06T12:07:11.575Z,17.17
2022-09-06T12:12:43.105Z,17.24
2022-09-06T12:17:54.720Z,17.33
2022-09-06T12:23:01.888Z,17.40
2022-09-06T12:28:13.994Z,17.46
2022-09-06T12:33:27.490Z,17.50
2022-09-06T12:38:34.536Z,17.53
2022-09-06T12:43:42.333Z,17.58
2022-09-06T12:49:10.139Z,17.61
2022-09-06T12:54:24.345Z,17.65
2022-09-06T12:59:32.912Z,17.68
2022-09-06T13:04:48.209Z,17.71
2022-09-06T13:09:59.152Z,17.73
2022-09-06T13:15:09.886Z,17.76
2022-09-06T13:20:27.108Z,17.78
2022-09-06T13:25:34.644Z,17.80
2022-09-06T13:30:49.776Z,17.82
2022-09-06T13:36:24.798Z,17.83
2022-09-06T13:41:44.812Z,17.85
2022-09-06T13:46:55.898Z,17.87
2022-09-06T13:52:05.531Z,17.89
2022-09-06T13:57:12.652Z,17.90
2022-09-06T14:02:21.458Z,17.91
2022-09-06T14:07:28.737Z,17.91
2022-09-06T14:12:37.782Z,17.92
2022-09-06T14:17:45.312Z,17.93
2022-09-06T14:22:52.575Z,17.93
2022-09-06T14:27:59.988Z,17.95
2022-09-06T14:33:07.557Z,17.96
2022-09-06T14:38:14.951Z,17.99
2022-09-06T14:43:22.131Z,18.00
2022-09-06T14:48:31.703Z,18.00
2022-09-06T14:53:42.155Z,18.00
2022-09-06T14:58:49.902Z,18.00
2022-09-06T15:03:58.546Z,18.00
2022-09-06T15:09:07.720Z,18.00
2022-09-06T15:14:19.653Z,17.99
2022-09-06T15:19:28.022Z,17.98
2022-09-06T15:24:37.049Z,17.97
2022-09-06T15:29:45.303Z,17.96
2022-09-06T15:34:52.742Z,17.93
2022-09-06T15:40:00.905Z,17.91
2022-09-06T15:45:10.184Z,17.88
2022-09-06T15:50:34.454Z,17.85
2022-09-06T15:55:57.816Z,17.82
2022-09-06T16:01:10.603Z,17.79
2022-09-06T16:06:27.861Z,17.75
2022-09-06T16:11:37.169Z,17.71
2022-09-06T16:16:46.030Z,17.67
2022-09-06T16:21:53.688Z,17.63
2022-09-06T16:27:01.183Z,17.59
2022-09-06T16:32:10.318Z,17.54
2022-09-06T16:37:17.530Z,17.49
2022-09-06T16:42:25.336Z,17.44
2022-09-06T16:47:33.114Z,17.39
2022-09-06T16:52:40.619Z,17.32
2022-09-06T16:57:48.402Z,17.25
2022-09-06T17:02:56.396Z,17.18
2022-09-06T17:08:04.273Z,17.11
2022-09-06T17:13:12.170Z,17.02
2022-09-06T17:18:19.617Z,16.92
2022-09-06T17:23:27.254Z,16.83
2022-09-06T17:28:37.514Z,16.72
2022-09-06T17:33:44.876Z,16.60
2022-09-06T17:38:54.131Z,16.44
2022-09-06T17:44:02.055Z,16.26
2022-09-06T17:49:09.649Z,16.06
2022-09-06T17:54:17.410Z,15.86
2022-09-06T17:59:24.850Z,15.63
2022-09-06T18:04:32.771Z,15.41
2022-09-06T18:09:42.091Z,15.17
2022-09-06T18:14:49.903Z,14.96
2022-09-06T18:19:57.988Z,14.76
2022-09-06T18:25:05.851Z,14.60
2022-09-06T18:30:15.103Z,14.46
2022-09-06T18:35:22.929Z,14.35
2022-09-06T18:40:31.536Z,14.24
2022-09-06T18:45:39.534Z,14.14
2022-09-06T18:50:47.227Z,14.06
2022-09-06T18:55:56.583Z,13.97
2022-09-06T19:01:09.263Z,13.90
2022-09-06T19:06:18.038Z,13.83
2022-09-06T19:11:26.034Z,13.77
2022-09-06T19:16:34.148Z,13.70
2022-09-06T19:21:42.717Z,13.63
2022-09-06T19:26:50.957Z,13.56
2022-09-06T19:31:58.574Z,13.50
2022-09-06T19:37:06.014Z,13.43
2022-09-06T19:42:14.025Z,13.35
2022-09-06T19:47:21.837Z,13.25
2022-09-06T19:52:29.314Z,13.14
2022-09-06T19:57:36.752Z,13.02
2022-09-06T20:02:44.582Z,12.89
2022-09-06T20:07:52.393Z,12.75
2022-09-06T20:12:59.659Z,12.59
2022-09-06T20:18:07.959Z,12.43
2022-09-06T20:23:15.445Z,12.24
2022-09-06T20:28:22.849Z,12.06
2022-09-06T20:33:30.878Z,11.86
2022-09-06T20:38:40.677Z,11.67
2022-09-06T20:43:51.996Z,11.47
2022-09-06T20:49:04.958Z,11.28
2022-09-06T20:54:14.149Z,11.09
2022-09-06T20:59:21.697Z,10.90
2022-09-06T21:04:29.091Z,10.71
2022-09-06T21:09:36.476Z,10.53
2022-09-06T21:14:43.946Z,10.34
2022-09-06T21:19:51.249Z,10.16
2022-09-06T21:24:59.097Z,9.98
2022-09-06T21:30:06.353Z,9.80
2022-09-06T21:35:14.027Z,9.63
2022-09-06T21:40:21.713Z,9.46
2022-09-06T21:45:29.019Z,9.29
2022-09-06T21:50:37.870Z,9.13
2022-09-06T21:55:45.493Z,8.98
2022-09-06T22:00:59.763Z,8.83
2022-09-06T22:06:14.723Z,8.69
2022-09-06T22:11:24.192Z,8.55
2022-09-06T22:16:33.069Z,8.42
2022-09-06T22:21:40.625Z,8.30
2022-09-06T22:26:48.107Z,8.18
2022-09-06T22:31:55.453Z,8.07
2022-09-06T22:37:02.942Z,7.95
2022-09-06T22:42:10.697Z,7.84
2022-09-06T22:47:18.029Z,7.73
2022-09-06T22:52:25.738Z,7.62
2022-09-06T22:57:33.179Z,7.53
2022-09-06T23:02:40.731Z,7.44
2022-09-06T23:07:48.315Z,7.34
2022-09-06T23:12:57.024Z,7.24
2022-09-06T23:18:04.403Z,7.14
2022-09-06T23:23:12.355Z,7.06
2022-09-06T23:28:20.388Z,6.97
2022-09-06T23:33:27.904Z,6.89
2022-09-06T23:38:35.953Z,6.81
2022-09-06T23:43:44.666Z,6.72
2022-09-06T23:48:52.144Z,6.65
2022-09-06T23:54:00.141Z,6.58
2022-09-06T23:59:07.506Z,6.51
